Muleshoe, Texas
Current Conditions -  °F | °C
As of 8:15 PM on Monday 22 Dec 2014 (Local Time) from KCVN Reporting Station
Overcast Overcast  
Wind Chill: 25°   Ceiling: 1300
Heat Index: 36°   Visibility: 10mi
Dew Point: 30°   Wind: 18mph
Humidity: 81%   Direction: 40°NE
Pressure: 29.77"   Gusts: NA
Location:  34.23°N, 102.72°W
Report Text: KCVN 230215Z 04016KT 10SM BKN013 OVC022 02/M01 A2977 RMK AO1
Loading
Personal Weather Stations






























Interactive Weather Map New forecast layout! Learn more

10-Day Weather Forecast

Advertisements
Track Severe Weather on mobile